Del Fair, Ohio
Current Conditions -  °F | °C
As of 1:17 PM on Thursday 29 Jan 2015 (Local Time) from KI69 Reporting Station
Overcast Overcast  
Wind Chill: 50°   Ceiling: 3400
Heat Index: 50°   Visibility: 10mi
Dew Point: 37°   Wind: 18mph
Humidity: 62%   Direction: 240°WSW
Pressure: 29.81"   Gusts: 24mph
Location:  39.1091°N, 84.6112°W
Report Text: KI69 291817Z AUTO 24016G21KT 10SM OVC034 10/03 A2981 RMK AO1
Loading
Personal Weather Stations






























Interactive Weather Map New forecast layout! Learn more

10-Day Weather Forecast

Advertisements
Track Severe Weather on mobile